createdAt,value
2023-02-24T00:02:30.050Z,28.10
2023-02-24T00:05:08.765Z,29.60
2023-02-24T00:07:46.443Z,27.60
2023-02-24T00:10:26.231Z,30.70
2023-02-24T00:13:04.107Z,35.30
2023-02-24T00:15:41.410Z,36.00
2023-02-24T00:18:11.533Z,31.80
2023-02-24T00:20:45.290Z,27.50
2023-02-24T00:23:24.269Z,31.30
2023-02-24T00:26:07.566Z,30.90
2023-02-24T00:28:45.009Z,33.60
2023-02-24T00:31:24.806Z,31.30
2023-02-24T00:34:05.568Z,32.00
2023-02-24T00:36:43.493Z,33.30
2023-02-24T00:39:30.310Z,29.60
2023-02-24T00:42:09.765Z,22.30
2023-02-24T00:44:47.246Z,32.40
2023-02-24T00:47:24.938Z,31.20
2023-02-24T00:49:55.303Z,32.90
2023-02-24T00:52:33.539Z,32.20
2023-02-24T00:55:15.494Z,28.70
2023-02-24T00:57:46.044Z,28.60
2023-02-24T01:00:18.963Z,31.70
2023-02-24T01:02:49.830Z,35.30
2023-02-24T01:05:29.946Z,31.50
2023-02-24T01:08:08.852Z,31.90
2023-02-24T01:11:09.512Z,35.00
2023-02-24T01:13:49.038Z,39.60
2023-02-24T01:16:25.820Z,22.30
2023-02-24T01:18:55.974Z,30.40
2023-02-24T01:21:31.829Z,28.30
2023-02-24T01:24:10.932Z,29.50
2023-02-24T01:26:46.784Z,35.70
2023-02-24T01:29:26.194Z,24.90
2023-02-24T01:32:03.755Z,25.80
2023-02-24T01:34:42.718Z,39.40
2023-02-24T01:37:20.359Z,18.00
2023-02-24T01:39:57.338Z,19.90
2023-02-24T01:42:34.756Z,24.10
2023-02-24T01:45:19.306Z,14.60
2023-02-24T01:47:51.229Z,14.30
2023-02-24T01:50:29.901Z,25.40
2023-02-24T01:53:10.250Z,25.00
2023-02-24T01:55:50.539Z,31.00
2023-02-24T01:58:33.239Z,20.80
2023-02-24T02:01:14.913Z,19.50
2023-02-24T02:06:26.873Z,14.10
2023-02-24T02:08:58.640Z,29.10
2023-02-24T02:11:33.508Z,30.10
2023-02-24T02:14:12.002Z,19.60
2023-02-24T02:17:06.352Z,23.40
2023-02-24T02:20:08.220Z,20.40
2023-02-24T02:23:29.093Z,25.90
2023-02-24T02:26:41.722Z,30.70
2023-02-24T02:30:04.269Z,25.90
2023-02-24T02:33:27.805Z,31.00
2023-02-24T02:36:13.236Z,15.30
2023-02-24T02:39:04.186Z,26.20
2023-02-24T02:41:45.005Z,36.90
2023-02-24T02:44:56.306Z,33.00
2023-02-24T02:47:54.220Z,34.90
2023-02-24T02:50:55.276Z,32.70
2023-02-24T02:53:41.560Z,37.70
2023-02-24T02:56:23.365Z,33.70
2023-02-24T02:58:57.202Z,32.70
2023-02-24T03:01:37.262Z,32.90
2023-02-24T03:04:18.115Z,31.80
2023-02-24T03:07:11.869Z,31.90
2023-02-24T03:09:52.882Z,30.80
2023-02-24T03:12:33.178Z,34.90
2023-02-24T03:15:14.338Z,16.40
2023-02-24T03:17:56.823Z,35.90
2023-02-24T03:20:48.129Z,22.30
2023-02-24T03:23:32.549Z,28.90
2023-02-24T03:26:23.711Z,23.70
2023-02-24T03:29:11.459Z,27.30
2023-02-24T03:32:15.068Z,36.70
2023-02-24T03:35:01.258Z,38.80
2023-02-24T03:37:37.308Z,30.90
2023-02-24T03:40:16.069Z,34.90
2023-02-24T03:43:00.104Z,34.30
2023-02-24T03:45:38.766Z,35.90
2023-02-24T03:48:15.929Z,21.40
2023-02-24T03:50:53.578Z,33.90
2023-02-24T03:54:03.231Z,27.20
2023-02-24T03:57:02.179Z,21.00
2023-02-24T04:00:23.800Z,25.20
2023-02-24T04:03:19.508Z,24.00
2023-02-24T04:06:16.270Z,17.20
2023-02-24T04:09:12.189Z,32.80
2023-02-24T04:12:04.004Z,15.80
2023-02-24T04:15:09.623Z,15.50
2023-02-24T04:17:59.608Z,22.90
2023-02-24T04:20:40.595Z,32.40
2023-02-24T04:23:23.955Z,28.50
2023-02-24T04:26:02.745Z,29.40
2023-02-24T04:28:41.237Z,16.00
2023-02-24T04:31:21.419Z,32.80
2023-02-24T04:34:00.493Z,38.30
2023-02-24T04:36:38.748Z,20.90
2023-02-24T04:39:19.044Z,26.50
2023-02-24T04:41:58.266Z,40.30
2023-02-24T04:44:35.244Z,38.20
2023-02-24T04:47:05.428Z,31.50
2023-02-24T04:49:43.927Z,35.40
2023-02-24T04:52:16.541Z,19.80
2023-02-24T04:54:54.315Z,23.90
2023-02-24T04:57:31.476Z,39.60
2023-02-24T05:00:27.918Z,46.00
2023-02-24T05:02:58.861Z,38.10
2023-02-24T05:05:38.201Z,41.60
2023-02-24T05:08:16.196Z,42.70
2023-02-24T05:10:47.999Z,48.20
2023-02-24T05:13:28.322Z,46.00
2023-02-24T05:16:09.314Z,39.50
2023-02-24T05:18:46.453Z,44.40
2023-02-24T05:21:38.428Z,38.30
2023-02-24T05:24:17.516Z,46.50
2023-02-24T05:27:15.872Z,42.50
2023-02-24T05:29:54.729Z,37.60
2023-02-24T05:32:34.963Z,40.60
2023-02-24T05:35:06.549Z,37.00
2023-02-24T05:37:42.627Z,45.30
2023-02-24T05:40:29.822Z,40.40
2023-02-24T05:43:04.663Z,48.80
2023-02-24T05:45:40.608Z,47.60
2023-02-24T05:48:19.213Z,46.10
2023-02-24T05:51:00.000Z,37.00
2023-02-24T05:53:30.622Z,43.80
2023-02-24T05:56:08.521Z,42.50
2023-02-24T05:58:45.644Z,48.80
2023-02-24T06:01:20.764Z,50.90
2023-02-24T06:03:51.787Z,56.40
2023-02-24T06:06:24.027Z,44.50
2023-02-24T06:08:55.738Z,48.00
2023-02-24T06:11:26.384Z,41.30
2023-02-24T06:14:07.557Z,58.30
2023-02-24T06:16:45.466Z,48.90
2023-02-24T06:19:25.875Z,55.70
2023-02-24T06:22:04.377Z,37.70
2023-02-24T06:24:45.586Z,70.00
2023-02-24T06:27:25.486Z,81.00
2023-02-24T06:30:03.984Z,41.70
2023-02-24T06:32:41.159Z,77.70
2023-02-24T06:35:17.793Z,38.80
2023-02-24T06:37:57.975Z,40.90
2023-02-24T06:40:35.077Z,35.30
2023-02-24T06:43:05.454Z,37.20
2023-02-24T06:45:41.557Z,33.90
2023-02-24T06:48:18.882Z,36.60
2023-02-24T06:50:57.237Z,33.50
2023-02-24T06:53:36.436Z,34.40
2023-02-24T06:56:20.419Z,32.50
2023-02-24T06:58:59.529Z,30.20
2023-02-24T07:01:45.926Z,31.20
2023-02-24T07:04:27.880Z,32.70
2023-02-24T07:07:03.809Z,39.50
2023-02-24T07:09:37.285Z,29.20
2023-02-24T07:12:17.577Z,36.40
2023-02-24T07:14:54.359Z,30.80
2023-02-24T07:17:31.063Z,31.40
2023-02-24T07:20:12.710Z,29.80
2023-02-24T07:22:44.387Z,30.20
2023-02-24T07:25:33.817Z,35.00
2023-02-24T07:28:12.435Z,28.00
2023-02-24T07:30:43.793Z,29.70
2023-02-24T07:33:23.673Z,31.20
2023-02-24T07:35:54.299Z,30.40
2023-02-24T07:38:24.385Z,29.60
2023-02-24T07:41:03.127Z,32.40
2023-02-24T07:43:38.897Z,25.40
2023-02-24T07:46:24.977Z,32.20
2023-02-24T07:49:03.993Z,30.90
2023-02-24T07:51:37.636Z,27.30
2023-02-24T07:54:16.099Z,29.20
2023-02-24T07:56:59.965Z,31.60
2023-02-24T07:59:38.756Z,29.30
2023-02-24T08:02:16.579Z,30.70
2023-02-24T08:04:55.955Z,28.40
2023-02-24T08:07:34.104Z,26.60
2023-02-24T08:10:24.610Z,27.10
2023-02-24T08:13:03.531Z,28.70
2023-02-24T08:15:39.206Z,31.10
2023-02-24T08:18:20.684Z,25.10
2023-02-24T08:21:05.222Z,24.30
2023-02-24T08:23:45.151Z,29.00
2023-02-24T08:26:30.733Z,19.60
2023-02-24T08:29:12.956Z,24.10
2023-02-24T08:31:45.374Z,28.90
2023-02-24T08:34:28.007Z,24.20
2023-02-24T08:37:05.156Z,24.60
2023-02-24T08:39:40.339Z,23.60
2023-02-24T08:42:14.613Z,22.30
2023-02-24T08:44:54.378Z,24.20
2023-02-24T08:47:36.514Z,23.70
2023-02-24T08:50:15.944Z,25.80
2023-02-24T08:52:54.195Z,40.00
2023-02-24T08:55:33.628Z,34.90
2023-02-24T08:58:19.990Z,79.80
2023-02-24T09:00:59.682Z,34.40
2023-02-24T09:03:46.392Z,52.30
2023-02-24T09:06:27.607Z,28.20
2023-02-24T09:09:19.890Z,31.60
2023-02-24T09:12:00.727Z,38.00
2023-02-24T09:14:39.619Z,34.20
2023-02-24T09:17:20.968Z,26.80
2023-02-24T09:23:01.290Z,26.90
2023-02-24T09:25:50.258Z,34.10
2023-02-24T09:28:29.579Z,18.90
2023-02-24T09:31:07.406Z,22.50
2023-02-24T09:33:43.095Z,28.20
2023-02-24T09:36:40.686Z,27.10
2023-02-24T09:39:23.815Z,26.40
2023-02-24T09:42:12.155Z,30.80
2023-02-24T09:45:03.278Z,34.30
2023-02-24T09:47:56.196Z,29.30
2023-02-24T09:51:30.551Z,25.80
2023-02-24T09:54:14.575Z,21.70
2023-02-24T09:57:17.620Z,23.50
2023-02-24T10:00:36.592Z,22.30
2023-02-24T10:03:43.105Z,22.70
2023-02-24T10:06:38.717Z,20.90
2023-02-24T10:09:35.928Z,17.20
2023-02-24T10:12:29.568Z,19.70
2023-02-24T10:15:19.991Z,21.60
2023-02-24T10:18:00.286Z,21.00
2023-02-24T10:20:49.599Z,18.80
2023-02-24T10:24:02.846Z,19.70
2023-02-24T10:26:59.688Z,18.20
2023-02-24T10:30:21.810Z,15.50
2023-02-24T10:33:06.027Z,19.50
2023-02-24T10:35:42.236Z,17.30
2023-02-24T10:38:20.468Z,17.30
2023-02-24T10:41:07.544Z,17.00
2023-02-24T10:43:57.512Z,12.90
2023-02-24T10:46:42.110Z,15.70
2023-02-24T10:49:28.214Z,9.20
2023-02-24T10:52:11.827Z,14.50
2023-02-24T10:55:29.170Z,15.00
2023-02-24T10:58:40.665Z,14.00
2023-02-24T11:01:50.018Z,12.40
2023-02-24T11:04:59.664Z,14.30
2023-02-24T11:07:55.525Z,13.50
2023-02-24T11:10:44.111Z,11.80
2023-02-24T11:13:44.052Z,12.00
2023-02-24T11:16:42.854Z,10.80
2023-02-24T11:19:19.795Z,21.20
2023-02-24T11:21:57.564Z,11.90
2023-02-24T11:24:33.292Z,11.30
2023-02-24T11:27:13.015Z,11.20
2023-02-24T11:30:17.742Z,10.60
2023-02-24T11:33:12.315Z,7.60
2023-02-24T11:36:04.362Z,10.10
2023-02-24T11:39:42.551Z,10.20
2023-02-24T11:42:29.697Z,11.40
2023-02-24T11:45:25.266Z,9.70
2023-02-24T11:48:26.216Z,11.60
2023-02-24T11:51:24.563Z,8.00
2023-02-24T11:54:19.932Z,12.50
2023-02-24T11:57:02.944Z,11.60
2023-02-24T11:59:53.161Z,12.20
2023-02-24T12:03:15.640Z,11.70
2023-02-24T12:05:57.267Z,12.90
2023-02-24T12:08:40.347Z,10.70
2023-02-24T12:11:40.815Z,11.00
2023-02-24T12:14:42.435Z,11.20
2023-02-24T12:17:45.224Z,12.00
2023-02-24T12:21:01.165Z,13.70
2023-02-24T12:23:45.147Z,18.00
2023-02-24T12:26:29.441Z,11.60
2023-02-24T12:29:51.752Z,13.50
2023-02-24T12:33:21.355Z,10.50
2023-02-24T12:36:46.522Z,12.60
2023-02-24T12:39:59.286Z,15.50
2023-02-24T12:43:04.292Z,15.50
2023-02-24T12:46:31.181Z,12.50
2023-02-24T12:49:40.373Z,11.20
2023-02-24T12:52:45.620Z,15.40
2023-02-24T12:55:42.618Z,10.20
2023-02-24T12:58:29.043Z,15.20
2023-02-24T13:01:27.680Z,10.60
2023-02-24T13:04:26.630Z,12.30
2023-02-24T13:07:43.402Z,11.70
2023-02-24T13:10:33.278Z,11.10
2023-02-24T13:13:33.951Z,10.90
2023-02-24T13:16:15.753Z,11.20
2023-02-24T13:18:49.876Z,12.30
2023-02-24T13:21:30.866Z,12.30
2023-02-24T13:24:22.680Z,12.90
2023-02-24T13:27:15.789Z,8.90
2023-02-24T13:30:04.527Z,11.60
2023-02-24T13:32:47.758Z,12.10
2023-02-24T13:35:28.896Z,10.60
2023-02-24T13:38:24.471Z,15.50
2023-02-24T13:41:31.348Z,11.80
2023-02-24T13:44:30.451Z,11.10
2023-02-24T13:48:01.340Z,11.50
2023-02-24T13:51:09.175Z,12.60
2023-02-24T13:54:22.164Z,12.20
2023-02-24T13:57:34.433Z,13.40
2023-02-24T14:00:56.938Z,10.70
2023-02-24T14:03:46.316Z,12.50
2023-02-24T14:06:38.820Z,14.20
2023-02-24T14:12:04.833Z,12.70
2023-02-24T14:14:39.930Z,13.10
2023-02-24T14:17:40.803Z,15.30
2023-02-24T14:23:24.006Z,11.20
2023-02-24T14:26:05.724Z,13.80
2023-02-24T14:28:42.093Z,15.60
2023-02-24T14:31:22.984Z,18.00
2023-02-24T14:34:04.530Z,11.60
2023-02-24T14:36:46.984Z,13.90
2023-02-24T14:39:30.115Z,13.50
2023-02-24T14:42:16.924Z,11.00
2023-02-24T14:45:02.849Z,12.00
2023-02-24T14:47:45.442Z,10.50
2023-02-24T14:50:29.833Z,15.90
2023-02-24T14:53:17.387Z,11.80
2023-02-24T14:56:03.432Z,14.10
2023-02-24T14:58:53.115Z,12.20
2023-02-24T15:01:48.879Z,9.40
2023-02-24T15:04:40.423Z,16.30
2023-02-24T15:07:31.535Z,13.20
2023-02-24T15:10:21.728Z,13.40
2023-02-24T15:13:18.306Z,13.30
2023-02-24T15:15:52.519Z,15.80
2023-02-24T15:18:33.748Z,12.50
2023-02-24T15:21:32.602Z,15.20
2023-02-24T15:24:35.566Z,12.00
2023-02-24T15:27:18.339Z,14.60
2023-02-24T15:30:33.514Z,13.90
2023-02-24T15:33:26.394Z,14.80
2023-02-24T15:36:00.806Z,17.30
2023-02-24T15:38:41.091Z,15.80
2023-02-24T15:41:18.091Z,16.20
2023-02-24T15:43:57.519Z,17.20
2023-02-24T15:46:39.168Z,13.20
2023-02-24T15:49:16.323Z,15.90
2023-02-24T15:51:55.227Z,13.10
2023-02-24T15:54:43.623Z,11.60
2023-02-24T15:57:20.320Z,11.80
2023-02-24T15:59:58.314Z,12.80
2023-02-24T16:02:35.902Z,12.90
2023-02-24T16:05:17.553Z,14.10
2023-02-24T16:07:49.766Z,13.20
2023-02-24T16:10:32.318Z,13.20
2023-02-24T16:13:10.781Z,12.50
2023-02-24T16:15:48.718Z,15.40
2023-02-24T16:18:26.980Z,10.20
2023-02-24T16:21:04.417Z,11.60
2023-02-24T16:23:41.550Z,13.10
2023-02-24T16:26:23.972Z,10.90
2023-02-24T16:29:02.530Z,20.60
2023-02-24T16:31:41.195Z,12.50
2023-02-24T16:34:19.637Z,14.30
2023-02-24T16:36:56.379Z,13.70
2023-02-24T16:39:27.496Z,12.40
2023-02-24T16:42:00.353Z,15.90
2023-02-24T16:44:38.494Z,10.20
2023-02-24T16:47:21.443Z,12.80
2023-02-24T16:50:00.852Z,9.70
2023-02-24T16:52:38.170Z,10.70
2023-02-24T16:55:17.480Z,18.20
2023-02-24T16:57:54.326Z,12.90
2023-02-24T17:00:32.735Z,16.90
2023-02-24T17:03:31.492Z,15.10
2023-02-24T17:06:02.115Z,13.70
2023-02-24T17:08:42.018Z,19.00
2023-02-24T17:11:22.508Z,9.80
2023-02-24T17:14:01.130Z,11.10
2023-02-24T17:16:40.678Z,15.10
2023-02-24T17:19:18.051Z,13.50
2023-02-24T17:21:54.870Z,16.00
2023-02-24T17:24:31.557Z,11.60
2023-02-24T17:27:08.917Z,9.50
2023-02-24T17:29:45.524Z,8.10
2023-02-24T17:32:15.843Z,9.80
2023-02-24T17:34:46.304Z,6.10
2023-02-24T17:37:22.513Z,11.80
2023-02-24T17:39:52.724Z,14.50
2023-02-24T17:42:29.364Z,10.70
2023-02-24T17:45:07.482Z,10.80
2023-02-24T17:47:45.083Z,11.80
2023-02-24T17:50:22.277Z,8.90
2023-02-24T17:52:59.344Z,9.00
2023-02-24T17:55:36.335Z,9.80
2023-02-24T17:58:07.041Z,8.80
2023-02-24T18:00:43.007Z,11.70
2023-02-24T18:03:20.810Z,11.50
2023-02-24T18:06:06.289Z,10.00
2023-02-24T18:08:43.126Z,8.40
2023-02-24T18:11:21.238Z,14.60
2023-02-24T18:14:00.512Z,9.00
2023-02-24T18:16:37.842Z,13.10
2023-02-24T18:19:15.285Z,14.10
2023-02-24T18:21:52.267Z,17.80
2023-02-24T18:24:29.703Z,9.30
2023-02-24T18:26:59.765Z,10.50
2023-02-24T18:29:37.997Z,13.50
2023-02-24T18:32:08.194Z,13.00
2023-02-24T18:34:44.379Z,9.10
2023-02-24T18:37:22.457Z,13.60
2023-02-24T18:39:59.182Z,12.30
2023-02-24T18:42:36.268Z,9.30
2023-02-24T18:45:13.784Z,14.40
2023-02-24T18:47:52.515Z,12.30
2023-02-24T18:50:29.224Z,11.50
2023-02-24T18:53:06.883Z,9.10
2023-02-24T18:55:44.578Z,11.90
2023-02-24T18:58:20.779Z,10.70
2023-02-24T19:00:57.666Z,10.00
2023-02-24T19:03:27.791Z,10.50
2023-02-24T19:06:04.797Z,10.90
2023-02-24T19:08:41.893Z,8.50
2023-02-24T19:11:22.661Z,10.60
2023-02-24T19:14:01.030Z,10.20
2023-02-24T19:16:38.657Z,16.50
2023-02-24T19:19:17.969Z,10.70
2023-02-24T19:21:54.662Z,11.40
2023-02-24T19:24:32.427Z,12.10
2023-02-24T19:27:11.528Z,13.10
2023-02-24T19:29:48.746Z,11.90
2023-02-24T19:32:25.993Z,13.80
2023-02-24T19:35:03.191Z,14.20
2023-02-24T19:37:40.331Z,13.40
2023-02-24T19:40:18.586Z,13.60
2023-02-24T19:42:53.756Z,19.00
2023-02-24T19:45:27.213Z,15.30
2023-02-24T19:48:05.122Z,13.20
2023-02-24T19:50:46.835Z,10.20
2023-02-24T19:53:23.848Z,13.50
2023-02-24T19:56:00.691Z,13.00
2023-02-24T19:58:39.083Z,14.40
2023-02-24T20:01:18.800Z,11.70
2023-02-24T20:03:58.961Z,12.10
2023-02-24T20:06:40.689Z,15.80
2023-02-24T20:09:22.370Z,15.70
2023-02-24T20:14:37.274Z,17.20
2023-02-24T20:17:08.317Z,15.20
2023-02-24T20:19:39.883Z,21.30
2023-02-24T20:22:15.729Z,14.30
2023-02-24T20:24:48.161Z,13.60
2023-02-24T20:27:24.776Z,17.80
2023-02-24T20:30:05.150Z,15.70
2023-02-24T20:32:43.295Z,14.20
2023-02-24T20:35:21.809Z,15.10
2023-02-24T20:37:58.288Z,15.90
2023-02-24T20:40:37.150Z,17.80
2023-02-24T20:43:10.601Z,16.40
2023-02-24T20:45:41.310Z,16.90
2023-02-24T20:48:12.182Z,21.90
2023-02-24T20:50:48.684Z,21.40
2023-02-24T20:53:25.671Z,15.30
2023-02-24T20:56:07.733Z,17.90
2023-02-24T20:58:44.553Z,18.40
2023-02-24T21:01:22.694Z,20.00
2023-02-24T21:03:59.501Z,22.00
2023-02-24T21:06:36.788Z,18.60
2023-02-24T21:09:08.059Z,18.80
2023-02-24T21:11:39.365Z,22.60
2023-02-24T21:14:19.478Z,19.70
2023-02-24T21:16:50.612Z,21.20
2023-02-24T21:19:28.630Z,25.30
2023-02-24T21:22:05.743Z,25.30
2023-02-24T21:24:42.334Z,21.90
2023-02-24T21:27:13.083Z,24.60
2023-02-24T21:29:46.667Z,23.10
2023-02-24T21:32:18.160Z,28.20
2023-02-24T21:34:50.437Z,26.30
2023-02-24T21:37:21.233Z,27.10
2023-02-24T21:39:52.109Z,22.20
2023-02-24T21:42:23.317Z,18.40
2023-02-24T21:45:02.747Z,17.90
2023-02-24T21:47:33.539Z,19.80
2023-02-24T21:50:12.223Z,17.30
2023-02-24T21:52:49.429Z,15.50
2023-02-24T21:55:26.753Z,16.70
2023-02-24T21:58:03.912Z,12.00
2023-02-24T22:00:41.396Z,18.70
2023-02-24T22:03:11.609Z,18.50
2023-02-24T22:05:54.072Z,14.70
2023-02-24T22:08:31.112Z,12.60
2023-02-24T22:11:02.592Z,13.70
2023-02-24T22:13:33.399Z,17.40
2023-02-24T22:16:12.918Z,18.00
2023-02-24T22:18:47.216Z,20.20
2023-02-24T22:21:26.498Z,17.30
2023-02-24T22:24:06.018Z,14.20
2023-02-24T22:26:42.885Z,18.20
2023-02-24T22:29:20.484Z,12.00
2023-02-24T22:31:56.985Z,7.80
2023-02-24T22:34:34.204Z,18.70
2023-02-24T22:37:04.486Z,15.70
2023-02-24T22:39:35.653Z,17.00
2023-02-24T22:42:09.605Z,23.10
2023-02-24T22:44:47.451Z,24.80
2023-02-24T22:47:24.538Z,17.20
2023-02-24T22:49:55.180Z,20.60
2023-02-24T22:52:32.824Z,20.10
2023-02-24T22:55:10.374Z,17.70
2023-02-24T22:57:47.476Z,22.00
2023-02-24T23:00:23.399Z,22.30
2023-02-24T23:02:53.449Z,20.10
2023-02-24T23:05:31.638Z,24.20
2023-02-24T23:08:08.760Z,19.00
2023-02-24T23:10:45.517Z,15.70
2023-02-24T23:13:17.057Z,17.70
2023-02-24T23:15:51.492Z,17.90
2023-02-24T23:18:28.070Z,17.10
2023-02-24T23:21:05.795Z,18.40
2023-02-24T23:23:38.087Z,17.90
2023-02-24T23:26:11.817Z,24.80
2023-02-24T23:28:50.370Z,17.40
2023-02-24T23:31:26.665Z,16.70
2023-02-24T23:34:07.565Z,17.30
2023-02-24T23:36:46.681Z,18.40
2023-02-24T23:39:24.325Z,20.10
2023-02-24T23:42:01.427Z,18.80
2023-02-24T23:44:40.348Z,16.20
2023-02-24T23:47:10.487Z,14.40
2023-02-24T23:49:48.839Z,21.90
2023-02-24T23:52:26.185Z,17.40
2023-02-24T23:55:03.864Z,17.40
2023-02-24T23:57:40.977Z,15.60
